sensor_id;sensor_type;location;lat;lon;timestamp;temperature;humidity
4763;DHT22;2395;50.738;7.122;2022-08-27T00:01:34;20.10;99.90
4763;DHT22;2395;50.738;7.122;2022-08-27T00:04:01;20.00;99.90
4763;DHT22;2395;50.738;7.122;2022-08-27T00:06:29;20.00;99.90
4763;DHT22;2395;50.738;7.122;2022-08-27T00:08:56;20.00;99.90
4763;DHT22;2395;50.738;7.122;2022-08-27T00:11:23;19.90;99.90
4763;DHT22;2395;50.738;7.122;2022-08-27T00:13:51;19.90;99.90
4763;DHT22;2395;50.738;7.122;2022-08-27T00:16:19;19.90;99.90
4763;DHT22;2395;50.738;7.122;2022-08-27T00:18:47;19.90;99.90
4763;DHT22;2395;50.738;7.122;2022-08-27T00:21:15;19.90;99.90
4763;DHT22;2395;50.738;7.122;2022-08-27T00:23:42;20.00;99.90
4763;DHT22;2395;50.738;7.122;2022-08-27T00:26:09;20.00;99.90
4763;DHT22;2395;50.738;7.122;2022-08-27T00:28:37;20.00;99.90
4763;DHT22;2395;50.738;7.122;2022-08-27T00:31:05;20.00;99.90
4763;DHT22;2395;50.738;7.122;2022-08-27T00:33:34;19.90;99.90
4763;DHT22;2395;50.738;7.122;2022-08-27T00:36:01;19.80;99.90
4763;DHT22;2395;50.738;7.122;2022-08-27T00:38:29;19.90;99.90
4763;DHT22;2395;50.738;7.122;2022-08-27T00:40:56;19.80;99.90
4763;DHT22;2395;50.738;7.122;2022-08-27T00:43:27;19.80;99.90
4763;DHT22;2395;50.738;7.122;2022-08-27T00:46:01;19.70;99.90
4763;DHT22;2395;50.738;7.122;2022-08-27T00:48:38;19.70;99.90
4763;DHT22;2395;50.738;7.122;2022-08-27T00:51:05;19.60;99.90
4763;DHT22;2395;50.738;7.122;2022-08-27T00:53:33;19.60;99.90
4763;DHT22;2395;50.738;7.122;2022-08-27T00:56:04;19.60;99.90
4763;DHT22;2395;50.738;7.122;2022-08-27T00:58:36;19.60;99.90
4763;DHT22;2395;50.738;7.122;2022-08-27T01:01:12;19.60;99.90
4763;DHT22;2395;50.738;7.122;2022-08-27T01:03:45;19.60;99.90
4763;DHT22;2395;50.738;7.122;2022-08-27T01:06:16;19.60;99.90
4763;DHT22;2395;50.738;7.122;2022-08-27T01:08:50;19.50;99.90
4763;DHT22;2395;50.738;7.122;2022-08-27T01:11:23;19.60;99.90
4763;DHT22;2395;50.738;7.122;2022-08-27T01:13:50;19.50;99.90
4763;DHT22;2395;50.738;7.122;2022-08-27T01:16:22;19.50;99.90
4763;DHT22;2395;50.738;7.122;2022-08-27T01:18:55;19.50;99.90
4763;DHT22;2395;50.738;7.122;2022-08-27T01:21:29;19.40;99.90
4763;DHT22;2395;50.738;7.122;2022-08-27T01:24:07;19.50;99.90
4763;DHT22;2395;50.738;7.122;2022-08-27T01:26:47;19.50;99.90
4763;DHT22;2395;50.738;7.122;2022-08-27T01:29:15;19.50;99.90
4763;DHT22;2395;50.738;7.122;2022-08-27T01:31:43;19.50;99.90
4763;DHT22;2395;50.738;7.122;2022-08-27T01:34:10;19.50;99.90
4763;DHT22;2395;50.738;7.122;2022-08-27T01:36:37;19.50;99.90
4763;DHT22;2395;50.738;7.122;2022-08-27T01:39:04;19.50;99.90
4763;DHT22;2395;50.738;7.122;2022-08-27T01:41:34;19.50;99.90
4763;DHT22;2395;50.738;7.122;2022-08-27T01:44:01;19.40;99.90
4763;DHT22;2395;50.738;7.122;2022-08-27T01:46:28;19.40;99.90
4763;DHT22;2395;50.738;7.122;2022-08-27T01:48:55;19.30;99.90
4763;DHT22;2395;50.738;7.122;2022-08-27T01:51:22;19.30;99.90
4763;DHT22;2395;50.738;7.122;2022-08-27T01:53:49;19.30;99.90
4763;DHT22;2395;50.738;7.122;2022-08-27T01:56:16;19.30;99.90
4763;DHT22;2395;50.738;7.122;2022-08-27T01:58:44;19.30;99.90
4763;DHT22;2395;50.738;7.122;2022-08-27T02:01:13;19.20;99.90
4763;DHT22;2395;50.738;7.122;2022-08-27T02:03:42;19.10;99.90
4763;DHT22;2395;50.738;7.122;2022-08-27T02:06:10;19.10;99.90
4763;DHT22;2395;50.738;7.122;2022-08-27T02:08:38;18.90;99.90
4763;DHT22;2395;50.738;7.122;2022-08-27T02:11:06;19.00;99.90
4763;DHT22;2395;50.738;7.122;2022-08-27T02:13:34;19.00;99.90
4763;DHT22;2395;50.738;7.122;2022-08-27T02:16:03;19.00;99.90
4763;DHT22;2395;50.738;7.122;2022-08-27T02:18:30;19.00;99.90
4763;DHT22;2395;50.738;7.122;2022-08-27T02:20:57;19.00;99.90
4763;DHT22;2395;50.738;7.122;2022-08-27T02:23:24;19.00;99.90
4763;DHT22;2395;50.738;7.122;2022-08-27T02:25:51;19.00;99.90
4763;DHT22;2395;50.738;7.122;2022-08-27T02:28:18;19.00;99.90
4763;DHT22;2395;50.738;7.122;2022-08-27T02:30:45;19.00;99.90
4763;DHT22;2395;50.738;7.122;2022-08-27T02:33:13;19.00;99.90
4763;DHT22;2395;50.738;7.122;2022-08-27T02:35:41;18.90;99.90
4763;DHT22;2395;50.738;7.122;2022-08-27T02:38:09;18.90;99.90
4763;DHT22;2395;50.738;7.122;2022-08-27T02:40:37;18.80;99.90
4763;DHT22;2395;50.738;7.122;2022-08-27T02:43:04;18.80;99.90
4763;DHT22;2395;50.738;7.122;2022-08-27T02:45:32;18.80;99.90
4763;DHT22;2395;50.738;7.122;2022-08-27T02:47:59;18.80;99.90
4763;DHT22;2395;50.738;7.122;2022-08-27T02:50:27;18.80;99.90
4763;DHT22;2395;50.738;7.122;2022-08-27T02:52:55;18.80;99.90
4763;DHT22;2395;50.738;7.122;2022-08-27T02:55:22;18.80;99.90
4763;DHT22;2395;50.738;7.122;2022-08-27T02:57:49;18.80;99.90
4763;DHT22;2395;50.738;7.122;2022-08-27T03:00:18;18.80;99.90
4763;DHT22;2395;50.738;7.122;2022-08-27T03:02:46;18.90;99.90
4763;DHT22;2395;50.738;7.122;2022-08-27T03:05:15;18.90;99.90
4763;DHT22;2395;50.738;7.122;2022-08-27T03:07:45;18.90;99.90
4763;DHT22;2395;50.738;7.122;2022-08-27T03:10:16;18.90;99.90
4763;DHT22;2395;50.738;7.122;2022-08-27T03:12:45;18.90;99.90
4763;DHT22;2395;50.738;7.122;2022-08-27T03:15:14;18.90;99.90
4763;DHT22;2395;50.738;7.122;2022-08-27T03:17:43;18.80;99.90
4763;DHT22;2395;50.738;7.122;2022-08-27T03:20:28;18.80;99.90
4763;DHT22;2395;50.738;7.122;2022-08-27T03:22:57;18.70;99.90
4763;DHT22;2395;50.738;7.122;2022-08-27T03:25:24;18.60;99.90
4763;DHT22;2395;50.738;7.122;2022-08-27T03:27:52;18.70;99.90
4763;DHT22;2395;50.738;7.122;2022-08-27T03:30:21;18.70;99.90
4763;DHT22;2395;50.738;7.122;2022-08-27T03:32:49;18.60;99.90
4763;DHT22;2395;50.738;7.122;2022-08-27T03:35:17;18.60;99.90
4763;DHT22;2395;50.738;7.122;2022-08-27T03:37:46;18.60;99.90
4763;DHT22;2395;50.738;7.122;2022-08-27T03:40:15;18.70;99.90
4763;DHT22;2395;50.738;7.122;2022-08-27T03:42:44;18.60;99.90
4763;DHT22;2395;50.738;7.122;2022-08-27T03:45:11;18.70;99.90
4763;DHT22;2395;50.738;7.122;2022-08-27T03:47:39;18.70;99.90
4763;DHT22;2395;50.738;7.122;2022-08-27T03:50:07;18.80;99.90
4763;DHT22;2395;50.738;7.122;2022-08-27T03:52:36;18.90;99.90
4763;DHT22;2395;50.738;7.122;2022-08-27T03:55:04;18.80;99.90
4763;DHT22;2395;50.738;7.122;2022-08-27T03:57:34;18.80;99.90
4763;DHT22;2395;50.738;7.122;2022-08-27T04:00:04;18.80;99.90
4763;DHT22;2395;50.738;7.122;2022-08-27T04:02:32;18.80;99.90
4763;DHT22;2395;50.738;7.122;2022-08-27T04:04:59;18.80;99.90
4763;DHT22;2395;50.738;7.122;2022-08-27T04:07:26;18.80;99.90
4763;DHT22;2395;50.738;7.122;2022-08-27T04:09:53;18.80;99.90
4763;DHT22;2395;50.738;7.122;2022-08-27T04:12:20;18.80;99.90
4763;DHT22;2395;50.738;7.122;2022-08-27T04:14:49;18.80;99.90
4763;DHT22;2395;50.738;7.122;2022-08-27T04:17:16;18.80;99.90
4763;DHT22;2395;50.738;7.122;2022-08-27T04:19:43;18.80;99.90
4763;DHT22;2395;50.738;7.122;2022-08-27T04:22:10;18.70;99.90
4763;DHT22;2395;50.738;7.122;2022-08-27T04:24:37;18.70;99.90
4763;DHT22;2395;50.738;7.122;2022-08-27T04:27:05;18.70;99.90
4763;DHT22;2395;50.738;7.122;2022-08-27T04:29:33;18.70;99.90
4763;DHT22;2395;50.738;7.122;2022-08-27T04:32:02;18.80;99.90
4763;DHT22;2395;50.738;7.122;2022-08-27T04:34:29;18.70;99.90
4763;DHT22;2395;50.738;7.122;2022-08-27T04:36:58;18.80;99.90
4763;DHT22;2395;50.738;7.122;2022-08-27T04:39:26;18.90;99.90
4763;DHT22;2395;50.738;7.122;2022-08-27T04:41:55;18.90;99.90
4763;DHT22;2395;50.738;7.122;2022-08-27T04:44:25;18.80;99.90
4763;DHT22;2395;50.738;7.122;2022-08-27T04:46:55;18.70;99.90
4763;DHT22;2395;50.738;7.122;2022-08-27T04:49:25;18.70;99.90
4763;DHT22;2395;50.738;7.122;2022-08-27T04:51:53;18.70;99.90
4763;DHT22;2395;50.738;7.122;2022-08-27T04:54:21;18.70;99.90
4763;DHT22;2395;50.738;7.122;2022-08-27T04:56:49;18.60;99.90
4763;DHT22;2395;50.738;7.122;2022-08-27T04:59:16;18.60;99.90
4763;DHT22;2395;50.738;7.122;2022-08-27T05:01:43;18.60;99.90
4763;DHT22;2395;50.738;7.122;2022-08-27T05:04:11;18.80;99.90
4763;DHT22;2395;50.738;7.122;2022-08-27T05:06:41;18.80;99.90
4763;DHT22;2395;50.738;7.122;2022-08-27T05:09:10;18.80;99.90
4763;DHT22;2395;50.738;7.122;2022-08-27T05:11:38;18.80;99.90
4763;DHT22;2395;50.738;7.122;2022-08-27T05:14:08;18.70;99.90
4763;DHT22;2395;50.738;7.122;2022-08-27T05:16:37;18.60;99.90
4763;DHT22;2395;50.738;7.122;2022-08-27T05:19:06;18.70;99.90
4763;DHT22;2395;50.738;7.122;2022-08-27T05:21:44;18.70;99.90
4763;DHT22;2395;50.738;7.122;2022-08-27T05:24:13;18.80;99.90
4763;DHT22;2395;50.738;7.122;2022-08-27T05:26:42;19.00;99.90
4763;DHT22;2395;50.738;7.122;2022-08-27T05:29:10;19.00;99.90
4763;DHT22;2395;50.738;7.122;2022-08-27T05:31:39;19.00;99.90
4763;DHT22;2395;50.738;7.122;2022-08-27T05:34:06;18.90;99.90
4763;DHT22;2395;50.738;7.122;2022-08-27T05:36:34;19.00;99.90
4763;DHT22;2395;50.738;7.122;2022-08-27T05:39:04;18.90;99.90
4763;DHT22;2395;50.738;7.122;2022-08-27T05:41:32;18.70;99.90
4763;DHT22;2395;50.738;7.122;2022-08-27T05:44:03;18.70;99.90
4763;DHT22;2395;50.738;7.122;2022-08-27T05:46:32;18.80;99.90
4763;DHT22;2395;50.738;7.122;2022-08-27T05:49:00;18.80;99.90
4763;DHT22;2395;50.738;7.122;2022-08-27T05:51:29;18.80;99.90
4763;DHT22;2395;50.738;7.122;2022-08-27T05:53:59;18.80;99.90
4763;DHT22;2395;50.738;7.122;2022-08-27T05:56:32;18.80;99.90
4763;DHT22;2395;50.738;7.122;2022-08-27T05:59:00;18.70;99.90
4763;DHT22;2395;50.738;7.122;2022-08-27T06:01:46;18.80;99.90
4763;DHT22;2395;50.738;7.122;2022-08-27T06:04:16;18.80;99.90
4763;DHT22;2395;50.738;7.122;2022-08-27T06:06:46;18.70;99.90
4763;DHT22;2395;50.738;7.122;2022-08-27T06:09:17;18.70;99.90
4763;DHT22;2395;50.738;7.122;2022-08-27T06:11:46;18.60;99.90
4763;DHT22;2395;50.738;7.122;2022-08-27T06:14:13;18.60;99.90
4763;DHT22;2395;50.738;7.122;2022-08-27T06:16:41;18.50;99.90
4763;DHT22;2395;50.738;7.122;2022-08-27T06:19:09;18.40;99.90
4763;DHT22;2395;50.738;7.122;2022-08-27T06:21:37;18.60;99.90
4763;DHT22;2395;50.738;7.122;2022-08-27T06:24:05;18.70;99.90
4763;DHT22;2395;50.738;7.122;2022-08-27T06:26:33;18.80;99.90
4763;DHT22;2395;50.738;7.122;2022-08-27T06:29:03;18.70;99.90
4763;DHT22;2395;50.738;7.122;2022-08-27T06:31:31;18.60;99.90
4763;DHT22;2395;50.738;7.122;2022-08-27T06:34:02;18.50;99.90
4763;DHT22;2395;50.738;7.122;2022-08-27T06:36:31;18.50;99.90
4763;DHT22;2395;50.738;7.122;2022-08-27T06:39:01;18.30;99.90
4763;DHT22;2395;50.738;7.122;2022-08-27T06:41:28;18.30;99.90
4763;DHT22;2395;50.738;7.122;2022-08-27T06:43:55;18.30;99.90
4763;DHT22;2395;50.738;7.122;2022-08-27T06:46:26;18.40;99.90
4763;DHT22;2395;50.738;7.122;2022-08-27T06:48:56;18.40;99.90
4763;DHT22;2395;50.738;7.122;2022-08-27T06:51:26;18.30;99.90
4763;DHT22;2395;50.738;7.122;2022-08-27T06:53:56;18.30;99.90
4763;DHT22;2395;50.738;7.122;2022-08-27T06:56:25;18.30;99.90
4763;DHT22;2395;50.738;7.122;2022-08-27T06:58:53;18.40;99.90
4763;DHT22;2395;50.738;7.122;2022-08-27T07:01:22;18.40;99.90
4763;DHT22;2395;50.738;7.122;2022-08-27T07:03:53;18.60;99.90
4763;DHT22;2395;50.738;7.122;2022-08-27T07:06:23;18.60;99.90
4763;DHT22;2395;50.738;7.122;2022-08-27T07:08:51;18.50;99.90
4763;DHT22;2395;50.738;7.122;2022-08-27T07:11:18;18.60;99.90
4763;DHT22;2395;50.738;7.122;2022-08-27T07:13:46;18.60;99.90
4763;DHT22;2395;50.738;7.122;2022-08-27T07:16:15;18.60;99.90
4763;DHT22;2395;50.738;7.122;2022-08-27T07:18:44;18.60;99.90
4763;DHT22;2395;50.738;7.122;2022-08-27T07:21:12;18.80;99.90
4763;DHT22;2395;50.738;7.122;2022-08-27T07:23:39;18.60;99.90
4763;DHT22;2395;50.738;7.122;2022-08-27T07:26:07;18.40;99.90
4763;DHT22;2395;50.738;7.122;2022-08-27T07:28:35;18.30;99.90
4763;DHT22;2395;50.738;7.122;2022-08-27T07:31:03;18.30;99.90
4763;DHT22;2395;50.738;7.122;2022-08-27T07:33:30;18.30;99.90
4763;DHT22;2395;50.738;7.122;2022-08-27T07:35:58;18.20;99.90
4763;DHT22;2395;50.738;7.122;2022-08-27T07:38:25;18.30;99.90
4763;DHT22;2395;50.738;7.122;2022-08-27T07:40:53;18.40;99.90
4763;DHT22;2395;50.738;7.122;2022-08-27T07:43:20;18.40;99.90
4763;DHT22;2395;50.738;7.122;2022-08-27T07:46:05;18.40;99.90
4763;DHT22;2395;50.738;7.122;2022-08-27T07:48:32;18.30;99.90
4763;DHT22;2395;50.738;7.122;2022-08-27T07:51:01;18.40;99.90
4763;DHT22;2395;50.738;7.122;2022-08-27T07:53:30;18.40;99.90
4763;DHT22;2395;50.738;7.122;2022-08-27T07:56:01;18.40;99.90
4763;DHT22;2395;50.738;7.122;2022-08-27T07:58:29;18.40;99.90
4763;DHT22;2395;50.738;7.122;2022-08-27T08:00:56;18.50;99.90
4763;DHT22;2395;50.738;7.122;2022-08-27T08:03:23;18.40;99.90
4763;DHT22;2395;50.738;7.122;2022-08-27T08:05:51;18.40;99.90
4763;DHT22;2395;50.738;7.122;2022-08-27T08:08:20;18.30;99.90
4763;DHT22;2395;50.738;7.122;2022-08-27T08:10:48;18.30;99.90
4763;DHT22;2395;50.738;7.122;2022-08-27T08:13:16;18.40;99.90
4763;DHT22;2395;50.738;7.122;2022-08-27T08:15:45;18.40;99.90
4763;DHT22;2395;50.738;7.122;2022-08-27T08:18:13;18.40;99.90
4763;DHT22;2395;50.738;7.122;2022-08-27T08:20:40;18.30;99.90
4763;DHT22;2395;50.738;7.122;2022-08-27T08:23:07;18.40;99.90
4763;DHT22;2395;50.738;7.122;2022-08-27T08:25:36;18.60;99.90
4763;DHT22;2395;50.738;7.122;2022-08-27T08:28:03;18.70;99.90
4763;DHT22;2395;50.738;7.122;2022-08-27T08:30:30;18.70;99.90
4763;DHT22;2395;50.738;7.122;2022-08-27T08:32:57;18.70;99.90
4763;DHT22;2395;50.738;7.122;2022-08-27T08:35:24;18.80;99.90
4763;DHT22;2395;50.738;7.122;2022-08-27T08:37:51;18.70;99.90
4763;DHT22;2395;50.738;7.122;2022-08-27T08:40:27;18.70;99.90
4763;DHT22;2395;50.738;7.122;2022-08-27T08:43:00;18.60;99.90
4763;DHT22;2395;50.738;7.122;2022-08-27T08:45:30;18.60;99.90
4763;DHT22;2395;50.738;7.122;2022-08-27T08:48:03;18.60;99.90
4763;DHT22;2395;50.738;7.122;2022-08-27T08:50:36;18.60;99.90
4763;DHT22;2395;50.738;7.122;2022-08-27T08:53:16;18.70;99.90
4763;DHT22;2395;50.738;7.122;2022-08-27T08:55:50;18.70;99.90
4763;DHT22;2395;50.738;7.122;2022-08-27T08:58:30;18.60;99.90
4763;DHT22;2395;50.738;7.122;2022-08-27T09:01:03;18.70;99.90
4763;DHT22;2395;50.738;7.122;2022-08-27T09:03:34;18.70;99.90
4763;DHT22;2395;50.738;7.122;2022-08-27T09:06:08;18.70;99.90
4763;DHT22;2395;50.738;7.122;2022-08-27T09:08:51;18.70;99.90
4763;DHT22;2395;50.738;7.122;2022-08-27T09:11:25;18.70;99.90
4763;DHT22;2395;50.738;7.122;2022-08-27T09:14:03;18.60;99.90
4763;DHT22;2395;50.738;7.122;2022-08-27T09:16:42;18.70;99.90
4763;DHT22;2395;50.738;7.122;2022-08-27T09:19:09;18.80;99.90
4763;DHT22;2395;50.738;7.122;2022-08-27T09:21:47;18.90;99.90
4763;DHT22;2395;50.738;7.122;2022-08-27T09:24:22;18.90;99.90
4763;DHT22;2395;50.738;7.122;2022-08-27T09:26:58;18.80;99.90
4763;DHT22;2395;50.738;7.122;2022-08-27T09:29:28;18.70;99.90
4763;DHT22;2395;50.738;7.122;2022-08-27T09:31:58;18.60;99.90
4763;DHT22;2395;50.738;7.122;2022-08-27T09:34:34;18.70;99.90
4763;DHT22;2395;50.738;7.122;2022-08-27T09:37:05;18.80;99.90
4763;DHT22;2395;50.738;7.122;2022-08-27T09:39:43;18.70;99.90
4763;DHT22;2395;50.738;7.122;2022-08-27T09:42:28;18.70;99.90
4763;DHT22;2395;50.738;7.122;2022-08-27T09:44:59;18.80;99.90
4763;DHT22;2395;50.738;7.122;2022-08-27T09:47:26;18.80;99.90
4763;DHT22;2395;50.738;7.122;2022-08-27T09:50:01;18.80;99.90
4763;DHT22;2395;50.738;7.122;2022-08-27T09:52:34;18.80;99.90
4763;DHT22;2395;50.738;7.122;2022-08-27T09:55:03;18.70;99.90
4763;DHT22;2395;50.738;7.122;2022-08-27T09:57:34;18.60;99.90
4763;DHT22;2395;50.738;7.122;2022-08-27T10:00:13;18.70;99.90
4763;DHT22;2395;50.738;7.122;2022-08-27T10:02:49;19.10;99.90
4763;DHT22;2395;50.738;7.122;2022-08-27T10:05:24;19.10;99.90
4763;DHT22;2395;50.738;7.122;2022-08-27T10:07:58;19.10;99.90
4763;DHT22;2395;50.738;7.122;2022-08-27T10:10:37;19.10;99.90
4763;DHT22;2395;50.738;7.122;2022-08-27T10:13:13;18.90;99.90
4763;DHT22;2395;50.738;7.122;2022-08-27T10:15:55;18.70;99.90
4763;DHT22;2395;50.738;7.122;2022-08-27T10:18:37;18.60;99.90
4763;DHT22;2395;50.738;7.122;2022-08-27T10:21:20;18.70;99.90
4763;DHT22;2395;50.738;7.122;2022-08-27T10:24:03;18.80;99.90
4763;DHT22;2395;50.738;7.122;2022-08-27T10:26:47;18.80;99.90
4763;DHT22;2395;50.738;7.122;2022-08-27T10:29:27;18.80;99.90
4763;DHT22;2395;50.738;7.122;2022-08-27T10:32:06;18.90;99.90
4763;DHT22;2395;50.738;7.122;2022-08-27T10:34:48;19.20;99.90
4763;DHT22;2395;50.738;7.122;2022-08-27T10:37:32;19.20;99.90
4763;DHT22;2395;50.738;7.122;2022-08-27T10:40:15;19.20;99.90
4763;DHT22;2395;50.738;7.122;2022-08-27T10:42:51;18.90;99.90
4763;DHT22;2395;50.738;7.122;2022-08-27T10:45:36;18.90;99.90
4763;DHT22;2395;50.738;7.122;2022-08-27T10:48:20;18.90;99.90
4763;DHT22;2395;50.738;7.122;2022-08-27T10:50:56;18.90;99.90
4763;DHT22;2395;50.738;7.122;2022-08-27T10:53:34;19.00;99.90
4763;DHT22;2395;50.738;7.122;2022-08-27T10:56:14;19.00;99.90
4763;DHT22;2395;50.738;7.122;2022-08-27T10:58:56;19.10;99.90
4763;DHT22;2395;50.738;7.122;2022-08-27T11:01:40;19.10;99.90
4763;DHT22;2395;50.738;7.122;2022-08-27T11:04:20;19.10;99.90
4763;DHT22;2395;50.738;7.122;2022-08-27T11:06:55;19.10;99.90
4763;DHT22;2395;50.738;7.122;2022-08-27T11:09:33;19.10;99.90
4763;DHT22;2395;50.738;7.122;2022-08-27T11:12:07;19.10;99.90
4763;DHT22;2395;50.738;7.122;2022-08-27T11:14:44;19.20;99.90
4763;DHT22;2395;50.738;7.122;2022-08-27T11:17:23;19.20;99.90
4763;DHT22;2395;50.738;7.122;2022-08-27T11:20:00;19.30;99.90
4763;DHT22;2395;50.738;7.122;2022-08-27T11:22:36;19.30;99.90
4763;DHT22;2395;50.738;7.122;2022-08-27T11:25:23;19.20;99.90
4763;DHT22;2395;50.738;7.122;2022-08-27T11:27:58;19.30;99.90
4763;DHT22;2395;50.738;7.122;2022-08-27T11:30:37;19.50;99.90
4763;DHT22;2395;50.738;7.122;2022-08-27T11:33:16;19.50;99.90
4763;DHT22;2395;50.738;7.122;2022-08-27T11:36:04;19.60;99.90
4763;DHT22;2395;50.738;7.122;2022-08-27T11:38:50;19.80;99.90
4763;DHT22;2395;50.738;7.122;2022-08-27T11:41:49;19.90;99.90
4763;DHT22;2395;50.738;7.122;2022-08-27T11:44:23;19.90;99.90
4763;DHT22;2395;50.738;7.122;2022-08-27T11:46:54;19.80;99.90
4763;DHT22;2395;50.738;7.122;2022-08-27T11:49:28;19.70;99.90
4763;DHT22;2395;50.738;7.122;2022-08-27T11:52:09;19.60;99.90
4763;DHT22;2395;50.738;7.122;2022-08-27T11:54:46;19.60;99.90
4763;DHT22;2395;50.738;7.122;2022-08-27T11:57:25;19.60;99.90
4763;DHT22;2395;50.738;7.122;2022-08-27T11:59:54;19.60;99.90
4763;DHT22;2395;50.738;7.122;2022-08-27T12:02:24;19.60;99.90
4763;DHT22;2395;50.738;7.122;2022-08-27T12:04:53;19.60;99.90
4763;DHT22;2395;50.738;7.122;2022-08-27T12:07:35;19.60;99.90
4763;DHT22;2395;50.738;7.122;2022-08-27T12:10:19;19.60;99.90
4763;DHT22;2395;50.738;7.122;2022-08-27T12:13:03;19.70;99.90
4763;DHT22;2395;50.738;7.122;2022-08-27T12:16:08;19.80;99.90
4763;DHT22;2395;50.738;7.122;2022-08-27T12:18:50;20.00;99.90
4763;DHT22;2395;50.738;7.122;2022-08-27T12:21:34;20.00;99.90
4763;DHT22;2395;50.738;7.122;2022-08-27T12:27:27;20.30;99.90
4763;DHT22;2395;50.738;7.122;2022-08-27T12:30:03;20.20;99.90
4763;DHT22;2395;50.738;7.122;2022-08-27T12:32:45;20.30;99.90
4763;DHT22;2395;50.738;7.122;2022-08-27T12:35:18;20.20;99.90
4763;DHT22;2395;50.738;7.122;2022-08-27T12:37:49;20.30;99.90
4763;DHT22;2395;50.738;7.122;2022-08-27T12:40:22;20.60;99.90
4763;DHT22;2395;50.738;7.122;2022-08-27T12:43:02;21.00;99.90
4763;DHT22;2395;50.738;7.122;2022-08-27T12:45:31;21.30;99.90
4763;DHT22;2395;50.738;7.122;2022-08-27T12:47:58;21.10;99.90
4763;DHT22;2395;50.738;7.122;2022-08-27T12:50:28;21.20;99.90
4763;DHT22;2395;50.738;7.122;2022-08-27T12:53:14;21.30;99.90
4763;DHT22;2395;50.738;7.122;2022-08-27T12:56:00;21.10;99.90
4763;DHT22;2395;50.738;7.122;2022-08-27T12:58:43;21.10;99.90
4763;DHT22;2395;50.738;7.122;2022-08-27T13:01:37;20.80;99.90
4763;DHT22;2395;50.738;7.122;2022-08-27T13:04:19;20.90;99.90
4763;DHT22;2395;50.738;7.122;2022-08-27T13:06:49;20.80;99.90
4763;DHT22;2395;50.738;7.122;2022-08-27T13:09:25;20.80;99.90
4763;DHT22;2395;50.738;7.122;2022-08-27T13:11:56;21.00;99.90
4763;DHT22;2395;50.738;7.122;2022-08-27T13:14:26;21.20;99.90
4763;DHT22;2395;50.738;7.122;2022-08-27T13:17:05;21.00;99.90
4763;DHT22;2395;50.738;7.122;2022-08-27T13:19:42;21.10;99.90
4763;DHT22;2395;50.738;7.122;2022-08-27T13:22:21;21.20;99.90
4763;DHT22;2395;50.738;7.122;2022-08-27T13:24:51;21.10;99.90
4763;DHT22;2395;50.738;7.122;2022-08-27T13:27:25;21.20;99.90
4763;DHT22;2395;50.738;7.122;2022-08-27T13:29:53;21.00;99.90
4763;DHT22;2395;50.738;7.122;2022-08-27T13:32:21;20.80;99.90
4763;DHT22;2395;50.738;7.122;2022-08-27T13:34:52;20.70;99.90
4763;DHT22;2395;50.738;7.122;2022-08-27T13:37:23;20.70;99.90
4763;DHT22;2395;50.738;7.122;2022-08-27T13:39:54;20.70;99.90
4763;DHT22;2395;50.738;7.122;2022-08-27T13:42:24;20.60;99.90
4763;DHT22;2395;50.738;7.122;2022-08-27T13:44:58;20.60;99.90
4763;DHT22;2395;50.738;7.122;2022-08-27T13:47:28;20.60;99.90
4763;DHT22;2395;50.738;7.122;2022-08-27T13:50:03;20.40;99.90
4763;DHT22;2395;50.738;7.122;2022-08-27T13:52:34;20.70;99.90
4763;DHT22;2395;50.738;7.122;2022-08-27T13:55:23;20.90;99.90
4763;DHT22;2395;50.738;7.122;2022-08-27T13:57:51;21.20;99.90
4763;DHT22;2395;50.738;7.122;2022-08-27T14:00:24;21.40;99.90
4763;DHT22;2395;50.738;7.122;2022-08-27T14:02:53;21.40;99.90
4763;DHT22;2395;50.738;7.122;2022-08-27T14:05:27;21.50;99.90
4763;DHT22;2395;50.738;7.122;2022-08-27T14:07:57;21.70;99.90
4763;DHT22;2395;50.738;7.122;2022-08-27T14:10:31;21.70;99.90
4763;DHT22;2395;50.738;7.122;2022-08-27T14:13:04;21.90;99.90
4763;DHT22;2395;50.738;7.122;2022-08-27T14:15:36;21.90;99.90
4763;DHT22;2395;50.738;7.122;2022-08-27T14:18:07;21.90;99.90
4763;DHT22;2395;50.738;7.122;2022-08-27T14:20:46;21.80;99.90
4763;DHT22;2395;50.738;7.122;2022-08-27T14:23:13;21.70;99.90
4763;DHT22;2395;50.738;7.122;2022-08-27T14:25:42;21.50;99.90
4763;DHT22;2395;50.738;7.122;2022-08-27T14:28:11;21.50;99.90
4763;DHT22;2395;50.738;7.122;2022-08-27T14:30:38;21.40;99.90
4763;DHT22;2395;50.738;7.122;2022-08-27T14:33:05;21.40;99.90
4763;DHT22;2395;50.738;7.122;2022-08-27T14:35:34;21.30;99.90
4763;DHT22;2395;50.738;7.122;2022-08-27T14:38:07;21.20;99.90
4763;DHT22;2395;50.738;7.122;2022-08-27T14:40:39;21.20;99.90
4763;DHT22;2395;50.738;7.122;2022-08-27T14:43:06;21.30;99.90
4763;DHT22;2395;50.738;7.122;2022-08-27T14:45:36;21.20;99.90
4763;DHT22;2395;50.738;7.122;2022-08-27T14:48:05;21.30;99.90
4763;DHT22;2395;50.738;7.122;2022-08-27T14:50:34;21.30;99.90
4763;DHT22;2395;50.738;7.122;2022-08-27T14:53:02;21.30;99.90
4763;DHT22;2395;50.738;7.122;2022-08-27T14:55:29;21.50;99.90
4763;DHT22;2395;50.738;7.122;2022-08-27T14:57:57;21.80;99.90
4763;DHT22;2395;50.738;7.122;2022-08-27T15:00:24;21.80;99.90
4763;DHT22;2395;50.738;7.122;2022-08-27T15:02:52;21.80;99.90
4763;DHT22;2395;50.738;7.122;2022-08-27T15:05:19;21.90;99.90
4763;DHT22;2395;50.738;7.122;2022-08-27T15:07:47;21.90;99.90
4763;DHT22;2395;50.738;7.122;2022-08-27T15:10:14;22.00;99.90
4763;DHT22;2395;50.738;7.122;2022-08-27T15:12:41;21.90;99.90
4763;DHT22;2395;50.738;7.122;2022-08-27T15:15:09;21.90;99.90
4763;DHT22;2395;50.738;7.122;2022-08-27T15:17:37;21.90;99.90
4763;DHT22;2395;50.738;7.122;2022-08-27T15:20:08;22.10;99.90
4763;DHT22;2395;50.738;7.122;2022-08-27T15:22:38;22.20;99.90
4763;DHT22;2395;50.738;7.122;2022-08-27T15:25:08;22.10;99.90
4763;DHT22;2395;50.738;7.122;2022-08-27T15:27:36;22.10;99.90
4763;DHT22;2395;50.738;7.122;2022-08-27T15:30:04;22.00;99.90
4763;DHT22;2395;50.738;7.122;2022-08-27T15:32:35;21.90;99.90
4763;DHT22;2395;50.738;7.122;2022-08-27T15:35:08;21.90;99.90
4763;DHT22;2395;50.738;7.122;2022-08-27T15:37:38;21.90;99.90
4763;DHT22;2395;50.738;7.122;2022-08-27T15:40:07;21.90;99.90
4763;DHT22;2395;50.738;7.122;2022-08-27T15:42:35;21.80;99.90
4763;DHT22;2395;50.738;7.122;2022-08-27T15:45:04;21.60;99.90
4763;DHT22;2395;50.738;7.122;2022-08-27T15:47:32;21.50;99.90
4763;DHT22;2395;50.738;7.122;2022-08-27T15:50:00;21.40;99.90
4763;DHT22;2395;50.738;7.122;2022-08-27T15:52:28;21.40;99.90
4763;DHT22;2395;50.738;7.122;2022-08-27T15:54:55;21.20;99.90
4763;DHT22;2395;50.738;7.122;2022-08-27T15:57:22;21.30;99.90
4763;DHT22;2395;50.738;7.122;2022-08-27T15:59:49;21.20;99.90
4763;DHT22;2395;50.738;7.122;2022-08-27T16:02:18;21.20;99.90
4763;DHT22;2395;50.738;7.122;2022-08-27T16:04:48;21.20;99.90
4763;DHT22;2395;50.738;7.122;2022-08-27T16:07:16;21.30;99.90
4763;DHT22;2395;50.738;7.122;2022-08-27T16:09:46;21.30;99.90
4763;DHT22;2395;50.738;7.122;2022-08-27T16:12:13;21.30;99.90
4763;DHT22;2395;50.738;7.122;2022-08-27T16:14:40;21.20;99.90
4763;DHT22;2395;50.738;7.122;2022-08-27T16:17:07;21.20;99.90
4763;DHT22;2395;50.738;7.122;2022-08-27T16:19:35;21.20;99.90
4763;DHT22;2395;50.738;7.122;2022-08-27T16:22:03;21.20;99.90
4763;DHT22;2395;50.738;7.122;2022-08-27T16:24:31;21.20;99.90
4763;DHT22;2395;50.738;7.122;2022-08-27T16:26:59;21.10;99.90
4763;DHT22;2395;50.738;7.122;2022-08-27T16:29:26;21.20;99.90
4763;DHT22;2395;50.738;7.122;2022-08-27T16:31:53;21.20;99.90